Time;durP1;ratioP1;P1;durP2;ratioP2;P2;SDS_P1;SDS_P2;PMS_P1;PMS_P2;Temp;Humidity;BMP_temperature;BMP_pressure;BME280_temperature;BME280_humidity;BME280_pressure;Samples;Min_cycle;Max_cycle;Signal;HPM_P1;HPM_P2
2024/04/05 00:01:16;;;;;;;2.40;0.28;;;14.10;98.40;;;;;;5027057;28;20034;-62
2024/04/05 00:03:42;;;;;;;3.65;0.38;;;14.10;98.50;;;;;;5029374;28;20468;-62
2024/04/05 00:06:07;;;;;;;3.63;0.30;;;14.10;98.50;;;;;;5054038;28;20051;-61
2024/04/05 00:08:42;;;;;;;3.53;0.20;;;14.10;98.50;;;;;;5037481;28;20033;-62
2024/04/05 00:11:07;;;;;;;1.52;0.30;;;14.10;98.50;;;;;;5043780;28;20037;-62
2024/04/05 00:13:34;;;;;;;1.95;0.20;;;14.10;98.50;;;;;;5038498;28;20025;-63
2024/04/05 00:16:04;;;;;;;1.85;0.30;;;14.10;98.60;;;;;;5034227;28;20167;-61
2024/04/05 00:18:39;;;;;;;1.70;0.30;;;14.10;98.60;;;;;;5012846;28;20049;-61
2024/04/05 00:21:05;;;;;;;2.75;0.30;;;14.10;98.60;;;;;;5043007;28;20111;-62
2024/04/05 00:23:31;;;;;;;2.63;0.30;;;14.10;98.60;;;;;;5063798;28;20554;-61
2024/04/05 00:26:01;;;;;;;1.23;0.25;;;14.20;98.60;;;;;;5092799;28;20446;-61
2024/04/05 00:28:27;;;;;;;3.92;0.38;;;14.20;98.50;;;;;;5051987;28;20058;-62
2024/04/05 00:30:53;;;;;;;0.98;0.20;;;14.20;98.70;;;;;;5024795;28;20069;-61
2024/04/05 00:33:19;;;;;;;2.55;0.30;;;14.20;98.50;;;;;;5021385;28;20040;-62
2024/04/05 00:35:53;;;;;;;3.60;0.35;;;14.30;98.50;;;;;;5040685;28;20052;-61
2024/04/05 00:38:19;;;;;;;;;;;14.30;98.50;;;;;;5064174;28;20037;-62
2024/04/05 00:40:45;;;;;;;3.75;0.20;;;14.30;98.50;;;;;;5057964;28;20280;-61
2024/04/05 00:43:11;;;;;;;2.55;0.38;;;14.30;98.50;;;;;;5049441;28;20079;-61
2024/04/05 00:45:37;;;;;;;2.10;0.25;;;14.30;98.50;;;;;;5062788;28;20029;-63
2024/04/05 00:48:03;;;;;;;3.67;0.40;;;14.30;98.30;;;;;;5054313;28;20040;-61
2024/04/05 00:50:30;;;;;;;1.08;0.20;;;14.30;98.40;;;;;;5044854;28;20238;-61
2024/04/05 00:52:58;;;;;;;2.83;0.20;;;14.30;98.50;;;;;;5053832;28;20044;-62
2024/04/05 00:55:31;;;;;;;2.45;0.30;;;14.30;98.60;;;;;;5045853;28;20512;-62
2024/04/05 00:58:01;;;;;;;2.53;0.30;;;14.30;98.50;;;;;;5012449;28;20033;-62
2024/04/05 01:00:31;;;;;;;0.80;0.20;;;14.30;98.50;;;;;;4995085;28;20037;-62
2024/04/05 01:02:58;;;;;;;1.27;0.25;;;14.30;98.40;;;;;;5029470;28;20479;-62
2024/04/05 01:05:24;;;;;;;2.45;0.20;;;14.30;98.50;;;;;;5019257;28;20480;-62
2024/04/05 01:07:51;;;;;;;2.00;0.25;;;14.20;98.50;;;;;;5024309;28;20034;-62
2024/04/05 01:10:17;;;;;;;;;;;14.20;98.50;;;;;;5011926;28;20120;-62
2024/04/05 01:12:43;;;;;;;2.67;0.30;;;14.20;98.50;;;;;;4990785;28;20024;-62
2024/04/05 01:15:09;;;;;;;0.82;0.13;;;14.20;98.50;;;;;;5018533;28;20045;-62
2024/04/05 01:17:35;;;;;;;0.95;0.20;;;14.20;98.50;;;;;;5031130;28;20040;-62
2024/04/05 01:20:04;;;;;;;3.08;0.30;;;14.20;98.50;;;;;;5030709;28;20067;-62
2024/04/05 01:22:45;;;;;;;0.35;0.10;;;14.20;98.40;;;;;;5035289;28;20040;-61
2024/04/05 01:25:17;;;;;;;1.83;0.28;;;14.10;98.40;;;;;;5066846;28;20094;-61
2024/04/05 01:27:45;;;;;;;4.18;0.35;;;14.10;98.50;;;;;;5068398;28;20037;-62
2024/04/05 01:30:11;;;;;;;1.60;0.20;;;14.10;98.50;;;;;;5057203;28;20086;-62
2024/04/05 01:32:37;;;;;;;1.52;0.25;;;14.10;98.40;;;;;;5071666;28;20037;-62
2024/04/05 01:35:03;;;;;;;4.60;0.50;;;14.10;98.40;;;;;;5077469;28;20055;-61
2024/04/05 01:37:29;;;;;;;1.83;0.30;;;14.10;98.30;;;;;;5087269;28;20058;-63
2024/04/05 01:39:54;;;;;;;1.02;0.28;;;14.10;98.40;;;;;;5074618;28;20118;-61
2024/04/05 01:42:20;;;;;;;2.75;0.22;;;14.10;98.30;;;;;;5048996;28;20044;-62
2024/04/05 01:44:45;;;;;;;3.85;0.30;;;14.00;98.40;;;;;;5049904;28;20091;-62
2024/04/05 01:47:11;;;;;;;3.10;0.20;;;14.10;98.50;;;;;;5040390;28;20465;-62
2024/04/05 01:49:36;;;;;;;1.42;0.20;;;14.10;98.60;;;;;;5057873;28;20041;-61
2024/04/05 01:52:02;;;;;;;2.05;0.20;;;14.10;98.60;;;;;;5049489;28;20029;-62
2024/04/05 01:54:34;;;;;;;1.75;0.22;;;14.00;98.40;;;;;;5032883;28;20044;-61
2024/04/05 01:57:00;;;;;;;0.45;0.10;;;14.00;98.60;;;;;;5026149;28;20124;-62
2024/04/05 01:59:25;;;;;;;3.00;0.40;;;14.00;98.60;;;;;;4999613;28;20117;-62
2024/04/05 02:01:51;;;;;;;5.75;0.30;;;14.00;99.00;;;;;;5035775;28;20035;-62
2024/04/05 02:04:17;;;;;;;1.58;0.20;;;14.00;98.70;;;;;;5049133;28;20094;-64
2024/04/05 02:06:42;;;;;;;4.00;0.30;;;14.00;98.80;;;;;;5023866;28;20377;-62
2024/04/05 02:09:08;;;;;;;3.33;0.30;;;14.00;98.70;;;;;;5009169;28;20057;-61
2024/04/05 02:11:34;;;;;;;0.90;0.20;;;14.00;98.80;;;;;;5034503;28;20567;-62
2024/04/05 02:13:59;;;;;;;7.15;0.30;;;13.90;98.70;;;;;;5044703;28;20112;-62
2024/04/05 02:16:25;;;;;;;2.25;0.10;;;14.00;98.70;;;;;;5027091;28;20025;-62
2024/04/05 02:18:51;;;;;;;1.17;0.25;;;13.90;98.70;;;;;;5035919;28;20103;-62
2024/04/05 02:21:16;;;;;;;3.08;0.38;;;13.90;98.80;;;;;;5023120;28;20481;-62
2024/04/05 02:23:42;;;;;;;1.60;0.10;;;13.90;98.70;;;;;;5034752;28;20037;-62
2024/04/05 02:26:07;;;;;;;1.48;0.28;;;13.90;98.70;;;;;;5073952;28;20059;-61
2024/04/05 02:28:34;;;;;;;2.97;0.30;;;13.80;98.70;;;;;;5114528;28;20520;-62
2024/04/05 02:30:59;;;;;;;1.25;0.10;;;13.80;98.60;;;;;;5095711;28;20035;-62
2024/04/05 02:33:31;;;;;;;1.50;0.20;;;13.70;98.70;;;;;;5093411;28;20032;-61
2024/04/05 02:36:00;;;;;;;2.25;0.20;;;13.80;98.70;;;;;;5078020;28;20708;-62
2024/04/05 02:38:26;;;;;;;3.20;0.38;;;13.70;98.70;;;;;;5064292;28;20033;-62
2024/04/05 02:40:53;;;;;;;2.38;0.20;;;13.70;98.90;;;;;;5040305;28;20045;-61
2024/04/05 02:43:18;;;;;;;4.05;0.40;;;13.80;98.80;;;;;;5038340;28;20100;-61
2024/04/05 02:45:44;;;;;;;9.82;0.70;;;13.70;98.80;;;;;;5011360;28;20493;-61
2024/04/05 02:48:09;;;;;;;1.25;0.20;;;13.70;98.80;;;;;;5006413;28;20037;-61
2024/04/05 02:50:35;;;;;;;2.00;0.30;;;13.70;98.80;;;;;;5039154;28;20351;-61
2024/04/05 02:53:00;;;;;;;5.43;0.30;;;13.60;98.80;;;;;;5020020;28;20168;-61
2024/04/05 02:55:26;;;;;;;2.15;0.20;;;13.70;98.80;;;;;;4998691;28;20490;-63
2024/04/05 02:57:52;;;;;;;4.78;0.40;;;13.70;98.80;;;;;;4997970;28;20528;-61
2024/04/05 03:00:17;;;;;;;2.13;0.25;;;13.60;98.80;;;;;;5009447;28;20500;-62
2024/04/05 03:02:43;;;;;;;0.95;0.20;;;13.60;98.90;;;;;;5031670;28;20029;-62
2024/04/05 03:05:09;;;;;;;3.40;0.30;;;13.70;98.90;;;;;;4989098;28;20026;-61
2024/04/05 03:07:35;;;;;;;2.33;0.32;;;13.70;98.90;;;;;;5026614;28;20033;-62
2024/04/05 03:10:01;;;;;;;2.65;0.38;;;13.70;99.00;;;;;;5032994;28;20397;-62
2024/04/05 03:12:26;;;;;;;1.17;0.20;;;13.70;99.00;;;;;;5006379;28;20037;-62
2024/04/05 03:14:52;;;;;;;2.03;0.20;;;13.70;99.10;;;;;;5045616;28;20029;-62
2024/04/05 03:17:18;;;;;;;2.72;0.40;;;13.70;99.10;;;;;;5049749;28;20049;-62
2024/04/05 03:19:43;;;;;;;2.83;0.35;;;13.70;99.20;;;;;;5016385;28;20029;-61
2024/04/05 03:22:09;;;;;;;1.63;0.30;;;13.70;99.20;;;;;;5036651;28;20041;-61
2024/04/05 03:24:35;;;;;;;1.48;0.30;;;13.70;99.30;;;;;;5004267;28;20095;-62
2024/04/05 03:27:07;;;;;;;5.60;0.45;;;13.70;99.40;;;;;;5017234;28;20064;-62
2024/04/05 03:29:36;;;;;;;1.83;0.40;;;13.70;99.50;;;;;;5012960;28;20534;-62
2024/04/05 03:32:03;;;;;;;3.28;0.40;;;13.70;99.50;;;;;;5009556;28;20034;-62
2024/04/05 03:34:29;;;;;;;2.45;0.40;;;13.80;99.50;;;;;;5043441;28;20036;-62
2024/04/05 03:36:55;;;;;;;2.35;0.40;;;13.80;99.50;;;;;;5033898;28;20041;-61
2024/04/05 03:39:20;;;;;;;5.07;0.40;;;13.80;99.60;;;;;;5012916;28;20433;-60
2024/04/05 03:41:46;;;;;;;3.63;0.50;;;13.80;99.60;;;;;;5042887;28;20036;-61
2024/04/05 03:44:11;;;;;;;3.58;0.30;;;13.80;99.50;;;;;;5081827;28;20347;-60
2024/04/05 03:46:38;;;;;;;2.70;0.43;;;13.80;99.50;;;;;;5070531;28;20036;-62
2024/04/05 03:49:06;;;;;;;2.55;0.45;;;13.70;99.70;;;;;;5034840;28;20029;-60
2024/04/05 03:51:31;;;;;;;2.33;0.40;;;13.70;99.30;;;;;;5056083;28;20105;-60
2024/04/05 03:53:58;;;;;;;3.47;0.45;;;13.70;99.30;;;;;;5056342;28;20072;-60
2024/04/05 03:56:24;;;;;;;3.25;0.40;;;13.80;99.30;;;;;;5095104;27;20036;-62
2024/04/05 03:58:51;;;;;;;6.25;0.60;;;13.80;99.30;;;;;;5049866;28;20048;-61
2024/04/05 04:01:17;;;;;;;2.67;0.40;;;13.80;99.30;;;;;;5039011;28;20032;-60
2024/04/05 04:03:45;;;;;;;2.00;0.43;;;13.80;99.30;;;;;;5059878;28;20394;-60
2024/04/05 04:06:11;;;;;;;2.85;0.40;;;13.70;99.30;;;;;;5084651;28;20050;-61
2024/04/05 04:08:37;;;;;;;5.43;0.60;;;13.70;99.30;;;;;;5058862;28;20475;-61
2024/04/05 04:11:09;;;;;;;5.22;0.65;;;13.80;99.40;;;;;;5045593;28;20037;-61
2024/04/05 04:13:35;;;;;;;1.85;0.35;;;13.80;99.50;;;;;;5057675;28;20032;-61
2024/04/05 04:16:00;;;;;;;7.32;0.60;;;13.80;99.60;;;;;;5070660;28;20387;-61
2024/04/05 04:18:26;;;;;;;2.92;0.50;;;13.80;99.70;;;;;;5067434;28;20135;-60
2024/04/05 04:20:52;;;;;;;2.22;0.50;;;13.80;99.70;;;;;;5054499;28;20690;-60
2024/04/05 04:23:18;;;;;;;2.63;0.50;;;13.90;99.90;;;;;;5065798;28;20432;-60
2024/04/05 04:25:45;;;;;;;1.85;0.30;;;13.90;99.80;;;;;;5092095;28;20044;-60
2024/04/05 04:28:11;;;;;;;2.20;0.40;;;14.00;99.90;;;;;;5069010;28;20035;-61
2024/04/05 04:30:36;;;;;;;2.35;0.32;;;14.00;99.80;;;;;;5043499;28;20048;-60
2024/04/05 04:33:02;;;;;;;3.78;0.50;;;13.90;99.80;;;;;;5050081;28;20079;-60
2024/04/05 04:35:28;;;;;;;2.50;0.40;;;14.00;99.90;;;;;;5015424;28;20446;-62
2024/04/05 04:37:54;;;;;;;1.98;0.35;;;14.00;99.90;;;;;;5009973;28;20433;-61
2024/04/05 04:40:20;;;;;;;2.50;0.40;;;14.00;99.90;;;;;;5045757;28;20051;-61
2024/04/05 04:42:45;;;;;;;3.90;0.55;;;14.00;99.90;;;;;;5084656;28;20474;-60
2024/04/05 04:45:11;;;;;;;4.95;0.47;;;14.00;99.90;;;;;;5063897;28;20033;-60
2024/04/05 04:47:37;;;;;;;3.00;0.50;;;14.10;99.90;;;;;;4985908;28;20033;-61
2024/04/05 04:50:04;;;;;;;5.10;0.50;;;14.10;99.90;;;;;;5059760;28;20110;-60
2024/04/05 04:52:30;;;;;;;1.77;0.40;;;14.20;99.90;;;;;;5044908;28;20489;-60
2024/04/05 04:54:56;;;;;;;4.82;0.70;;;14.20;99.90;;;;;;5058072;28;20637;-60
2024/04/05 04:57:23;;;;;;;2.50;0.40;;;14.20;99.90;;;;;;5066535;28;20146;-61
2024/04/05 04:59:50;;;;;;;2.13;0.35;;;14.30;99.90;;;;;;5045252;28;20059;-60
2024/04/05 05:02:15;;;;;;;5.50;0.57;;;14.30;99.90;;;;;;5039590;28;20428;-61
2024/04/05 05:04:41;;;;;;;2.90;0.30;;;14.30;99.90;;;;;;5036072;28;20083;-61
2024/04/05 05:07:13;;;;;;;4.40;0.65;;;14.20;99.90;;;;;;5033135;28;20040;-61
2024/04/05 05:09:39;;;;;;;2.25;0.40;;;14.20;99.90;;;;;;5032332;28;20036;-61
2024/04/05 05:12:05;;;;;;;7.50;0.50;;;14.30;99.90;;;;;;5059572;28;20040;-61
2024/04/05 05:14:30;;;;;;;1.27;0.30;;;14.30;99.90;;;;;;5064251;28;20033;-61
2024/04/05 05:16:56;;;;;;;2.63;0.50;;;14.30;99.90;;;;;;5059898;28;20045;-60
2024/04/05 05:19:29;;;;;;;1.60;0.50;;;14.30;99.90;;;;;;5033198;28;20045;-61
2024/04/05 05:21:54;;;;;;;4.68;0.40;;;14.30;99.90;;;;;;5026201;28;20034;-60
2024/04/05 05:24:20;;;;;;;2.55;0.40;;;14.30;99.90;;;;;;5033716;28;20040;-60
2024/04/05 05:26:45;;;;;;;6.00;0.50;;;14.30;99.90;;;;;;5032768;28;20037;-59
2024/04/05 05:29:11;;;;;;;3.85;0.43;;;14.30;99.90;;;;;;5020935;28;20149;-60
2024/04/05 05:31:37;;;;;;;5.53;0.60;;;14.30;99.90;;;;;;5010430;28;20041;-61
2024/04/05 05:34:02;;;;;;;4.45;0.40;;;14.30;99.90;;;;;;4983996;28;20131;-61
2024/04/05 05:36:28;;;;;;;1.92;0.30;;;14.30;99.90;;;;;;5006214;28;20064;-62
2024/04/05 05:38:53;;;;;;;2.92;0.60;;;14.40;99.90;;;;;;5018817;28;20472;-61
2024/04/05 05:41:19;;;;;;;3.60;0.40;;;14.30;99.90;;;;;;5038690;28;20068;-62
2024/04/05 05:43:44;;;;;;;5.05;0.50;;;14.40;99.90;;;;;;5072388;28;20039;-62
2024/04/05 05:46:10;;;;;;;2.25;0.30;;;14.40;99.90;;;;;;5047664;28;20021;-61
2024/04/05 05:48:35;;;;;;;3.38;0.40;;;14.40;99.90;;;;;;5049120;28;20166;-62
2024/04/05 05:51:01;;;;;;;10.68;0.70;;;14.30;99.90;;;;;;5022308;28;21658;-60
2024/04/05 05:53:28;;;;;;;2.58;0.32;;;14.30;99.90;;;;;;5007184;28;20030;-61
2024/04/05 05:55:53;;;;;;;3.78;0.35;;;14.30;99.90;;;;;;4992717;28;20567;-61
2024/04/05 05:58:19;;;;;;;3.28;0.50;;;14.30;99.90;;;;;;4999750;28;20469;-61
2024/04/05 06:00:44;;;;;;;4.50;0.40;;;14.40;99.90;;;;;;4996064;28;20121;-61
2024/04/05 06:03:11;;;;;;;3.42;0.47;;;14.40;99.90;;;;;;4964792;28;20071;-61
2024/04/05 06:05:37;;;;;;;1.88;0.30;;;14.30;99.90;;;;;;4986549;28;20105;-61
2024/04/05 06:08:08;;;;;;;3.20;0.40;;;14.40;99.90;;;;;;4951030;28;20254;-60
2024/04/05 06:10:34;;;;;;;5.38;0.40;;;14.40;99.90;;;;;;4972274;28;20041;-61
2024/04/05 06:13:01;;;;;;;4.80;0.50;;;14.40;99.90;;;;;;4972634;28;20030;-61
2024/04/05 06:15:27;;;;;;;2.20;0.50;;;14.40;99.90;;;;;;4934107;28;20036;-60
2024/04/05 06:17:53;;;;;;;3.60;0.40;;;14.40;99.90;;;;;;4955778;28;20054;-61
2024/04/05 06:20:18;;;;;;;2.88;0.50;;;14.40;99.90;;;;;;4958364;28;20034;-61
2024/04/05 06:22:44;;;;;;;3.92;0.40;;;14.40;99.90;;;;;;4973644;28;20026;-61
2024/04/05 06:25:10;;;;;;;2.63;0.35;;;14.50;99.90;;;;;;5011666;28;20125;-60
2024/04/05 06:27:36;;;;;;;2.55;0.40;;;14.50;99.90;;;;;;5018742;28;20062;-61
2024/04/05 06:30:02;;;;;;;5.22;0.50;;;14.50;99.90;;;;;;5040419;28;20029;-60
2024/04/05 06:32:30;;;;;;;2.40;0.30;;;14.70;99.90;;;;;;5046965;28;20039;-61
2024/04/05 06:34:56;;;;;;;4.60;0.52;;;14.80;99.90;;;;;;5062455;28;20048;-61
2024/04/05 06:37:21;;;;;;;2.67;0.40;;;14.90;99.90;;;;;;5056264;28;20558;-61
2024/04/05 06:39:47;;;;;;;2.90;0.45;;;15.10;99.90;;;;;;5013806;28;20083;-61
2024/04/05 06:42:12;;;;;;;4.90;0.47;;;15.10;99.90;;;;;;5036725;28;20522;-62
2024/04/05 06:44:41;;;;;;;4.70;0.40;;;15.20;99.90;;;;;;5055702;28;20047;-62
2024/04/05 06:47:08;;;;;;;5.70;0.40;;;15.30;99.90;;;;;;5049340;28;20556;-62
2024/04/05 06:49:34;;;;;;;5.45;0.47;;;15.30;99.90;;;;;;5041653;28;20147;-62
2024/04/05 06:52:08;;;;;;;2.97;0.50;;;15.30;99.90;;;;;;5070030;28;20166;-61
2024/04/05 06:54:44;;;;;;;5.95;0.60;;;15.40;99.90;;;;;;5059053;28;20479;-62
2024/04/05 06:57:10;;;;;;;4.63;0.52;;;15.50;99.90;;;;;;5042004;28;20035;-61
2024/04/05 06:59:36;;;;;;;3.67;0.50;;;15.60;99.90;;;;;;5008757;28;20041;-61
2024/04/05 07:02:03;;;;;;;3.10;0.40;;;15.70;99.90;;;;;;4978727;28;20432;-61
2024/04/05 07:04:29;;;;;;;4.10;0.43;;;15.70;99.80;;;;;;4964508;28;20435;-61
2024/04/05 07:06:54;;;;;;;1.25;0.25;;;15.80;99.70;;;;;;5031099;28;20060;-61
2024/04/05 07:09:21;;;;;;;5.60;0.50;;;15.80;99.80;;;;;;5037799;28;20037;-61
2024/04/05 07:11:48;;;;;;;2.55;0.40;;;15.90;99.70;;;;;;5062212;28;20055;-61
2024/04/05 07:14:16;;;;;;;1.02;0.30;;;16.10;99.60;;;;;;5070780;28;20260;-61
2024/04/05 07:16:43;;;;;;;;;;;16.20;99.50;;;;;;5074503;28;20032;-61
2024/04/05 07:19:08;;;;;;;5.95;0.50;;;16.30;99.40;;;;;;5047034;28;19928;-61
2024/04/05 07:21:34;;;;;;;4.13;0.40;;;16.40;99.10;;;;;;5036541;28;20519;-62
2024/04/05 07:23:59;;;;;;;4.18;0.50;;;16.40;98.80;;;;;;5040280;28;20033;-61
2024/04/05 07:26:25;;;;;;;3.72;0.50;;;16.40;98.80;;;;;;5033675;28;20032;-61
2024/04/05 07:28:52;;;;;;;2.92;0.40;;;16.40;98.60;;;;;;5033056;28;20655;-61
2024/04/05 07:31:17;;;;;;;2.70;0.38;;;16.40;98.60;;;;;;4973812;28;20462;-61
2024/04/05 07:33:43;;;;;;;3.90;0.28;;;16.60;98.90;;;;;;4985269;28;20046;-61
2024/04/05 07:36:16;;;;;;;4.43;0.20;;;16.70;98.70;;;;;;5009575;28;20107;-61
2024/04/05 07:38:42;;;;;;;5.32;0.40;;;16.80;98.50;;;;;;5030383;28;20875;-61
2024/04/05 07:41:08;;;;;;;1.30;0.20;;;17.00;98.20;;;;;;5016207;28;20120;-61
2024/04/05 07:43:33;;;;;;;2.28;0.20;;;17.10;98.10;;;;;;5022536;28;20033;-61
2024/04/05 07:45:59;;;;;;;2.65;0.30;;;17.20;97.90;;;;;;4995460;28;20026;-61
2024/04/05 07:48:25;;;;;;;2.92;0.32;;;17.40;98.00;;;;;;4989513;28;20385;-62
2024/04/05 07:50:51;;;;;;;3.15;0.38;;;17.50;97.50;;;;;;4993123;28;20039;-61
2024/04/05 07:53:17;;;;;;;1.60;0.20;;;17.40;97.00;;;;;;5015856;28;20029;-61
2024/04/05 07:55:43;;;;;;;2.13;0.35;;;17.40;97.20;;;;;;5012636;28;20028;-61
2024/04/05 07:58:09;;;;;;;9.70;0.65;;;17.50;97.30;;;;;;4999103;28;20170;-61
2024/04/05 08:00:35;;;;;;;4.43;0.20;;;17.40;97.00;;;;;;4979854;28;20035;-61
2024/04/05 08:03:01;;;;;;;3.45;0.30;;;17.30;96.90;;;;;;4959636;28;20549;-61
2024/04/05 08:05:27;;;;;;;3.08;0.25;;;17.30;97.10;;;;;;5006311;28;20119;-61
2024/04/05 08:07:53;;;;;;;3.15;0.28;;;17.30;97.00;;;;;;5010238;28;20038;-61
2024/04/05 08:10:18;;;;;;;2.40;0.30;;;17.30;96.70;;;;;;4998157;28;20152;-61
2024/04/05 08:12:44;;;;;;;2.25;0.20;;;17.20;97.00;;;;;;5004259;28;20115;-61
2024/04/05 08:15:11;;;;;;;2.83;0.30;;;17.20;97.30;;;;;;5049904;28;20067;-60
2024/04/05 08:17:37;;;;;;;5.45;0.38;;;17.20;97.20;;;;;;5080109;28;20032;-62
2024/04/05 08:20:03;;;;;;;3.20;0.30;;;17.30;97.40;;;;;;5099336;28;20058;-61
2024/04/05 08:22:35;;;;;;;5.65;0.30;;;17.40;97.20;;;;;;5094978;28;20097;-62
2024/04/05 08:25:01;;;;;;;3.38;0.30;;;17.50;97.30;;;;;;5106350;28;20424;-62
2024/04/05 08:27:28;;;;;;;3.17;0.43;;;17.50;97.20;;;;;;5101638;28;20092;-61
2024/04/05 08:29:54;;;;;;;2.38;0.25;;;17.60;96.70;;;;;;5099300;28;20024;-62
2024/04/05 08:32:19;;;;;;;2.38;0.30;;;17.60;96.80;;;;;;5080773;28;20036;-62
2024/04/05 08:34:45;;;;;;;1.75;0.20;;;17.70;96.90;;;;;;5091199;28;20035;-62
2024/04/05 08:37:11;;;;;;;3.40;0.28;;;17.80;97.00;;;;;;5094826;28;20063;-62
2024/04/05 08:39:36;;;;;;;2.90;0.20;;;17.90;97.40;;;;;;5080993;28;20051;-62
2024/04/05 08:42:16;;;;;;;3.72;0.20;;;18.10;97.40;;;;;;5087577;28;20435;-62
2024/04/05 08:44:47;;;;;;;2.45;0.20;;;18.10;96.10;;;;;;5098204;28;20035;-62
2024/04/05 08:47:13;;;;;;;3.88;0.30;;;18.10;95.70;;;;;;5104327;28;20055;-62
2024/04/05 08:49:42;;;;;;;3.35;0.43;;;18.10;96.20;;;;;;5105792;28;20046;-61
2024/04/05 08:52:07;;;;;;;3.53;0.30;;;18.20;96.60;;;;;;5093539;28;20039;-62
2024/04/05 08:54:35;;;;;;;1.23;0.25;;;18.20;96.50;;;;;;5101351;27;20027;-61
2024/04/05 08:57:00;;;;;;;2.55;0.30;;;18.30;96.20;;;;;;5096579;28;20086;-62
2024/04/05 08:59:30;;;;;;;3.33;0.50;;;18.30;96.50;;;;;;5088314;28;20514;-61
2024/04/05 09:02:00;;;;;;;1.85;0.20;;;18.30;95.80;;;;;;5076254;28;20044;-61
2024/04/05 09:04:26;;;;;;;2.75;0.30;;;18.30;96.10;;;;;;5106317;27;20532;-61
2024/04/05 09:06:52;;;;;;;12.38;0.85;;;18.40;96.00;;;;;;5097746;28;20039;-61
2024/04/05 09:09:28;;;;;;;1.83;0.25;;;18.30;95.90;;;;;;5076781;28;20495;-61
2024/04/05 09:12:10;;;;;;;2.30;0.20;;;18.20;95.70;;;;;;5081230;28;20382;-61
2024/04/05 09:14:37;;;;;;;2.60;0.30;;;18.30;95.60;;;;;;5093875;28;20039;-62
2024/04/05 09:17:12;;;;;;;1.58;0.20;;;18.20;95.60;;;;;;5084083;28;20058;-62
2024/04/05 09:19:37;;;;;;;3.30;0.38;;;18.20;95.90;;;;;;5088716;28;20047;-62
2024/04/05 09:22:19;;;;;;;2.78;0.30;;;18.30;96.20;;;;;;5094617;28;20394;-61
2024/04/05 09:24:45;;;;;;;3.65;0.40;;;18.20;95.80;;;;;;5076877;28;20044;-61
2024/04/05 09:27:17;;;;;;;4.18;0.35;;;18.20;95.80;;;;;;5075685;28;20076;-61
2024/04/05 09:29:42;;;;;;;3.97;0.30;;;18.30;96.00;;;;;;5088620;28;20028;-61
2024/04/05 09:32:17;;;;;;;2.75;0.40;;;18.40;96.30;;;;;;5071628;28;20114;-61
2024/04/05 09:34:43;;;;;;;4.13;0.22;;;18.50;96.10;;;;;;5082911;28;20032;-61
2024/04/05 09:37:10;;;;;;;2.40;0.22;;;18.60;95.90;;;;;;5079314;28;20044;-62
2024/04/05 09:39:36;;;;;;;3.45;0.40;;;18.70;96.00;;;;;;5083896;28;20786;-61
2024/04/05 09:42:02;;;;;;;3.42;0.50;;;18.80;96.10;;;;;;5082313;28;20044;-62
2024/04/05 09:44:28;;;;;;;1.00;0.20;;;18.90;96.10;;;;;;5092091;28;20048;-61
2024/04/05 09:46:57;;;;;;;6.78;0.43;;;19.10;95.50;;;;;;5076974;28;20128;-61
2024/04/05 09:49:29;;;;;;;4.03;0.40;;;19.20;95.10;;;;;;5066982;28;20041;-60
2024/04/05 09:51:58;;;;;;;13.23;0.70;;;19.40;95.10;;;;;;5091509;28;20047;-60
2024/04/05 09:54:27;;;;;;;1.92;0.45;;;19.50;94.00;;;;;;5079604;28;20158;-60
2024/04/05 09:56:53;;;;;;;1.55;0.20;;;19.60;94.10;;;;;;5087173;28;20032;-60
2024/04/05 09:59:30;;;;;;;2.63;0.20;;;19.60;94.30;;;;;;5074342;28;20051;-61
2024/04/05 10:01:57;;;;;;;3.75;0.43;;;19.70;94.10;;;;;;5078744;28;20028;-60
2024/04/05 10:04:24;;;;;;;4.35;0.40;;;19.80;93.70;;;;;;5079082;28;20035;-61
2024/04/05 10:06:50;;;;;;;4.18;0.40;;;19.80;93.80;;;;;;5098663;28;20028;-60
2024/04/05 10:09:21;;;;;;;3.67;0.30;;;19.90;92.90;;;;;;5040193;28;20087;-60
2024/04/05 10:11:48;;;;;;;3.60;0.40;;;19.80;92.50;;;;;;5021607;28;20041;-60
2024/04/05 10:14:24;;;;;;;3.70;0.40;;;19.80;93.30;;;;;;5058099;28;20403;-60
2024/04/05 10:17:14;;;;;;;3.55;0.40;;;19.80;93.20;;;;;;5053746;28;20351;-60
2024/04/05 10:19:41;;;;;;;1.77;0.20;;;19.90;92.80;;;;;;5067432;28;20048;-61
2024/04/05 10:22:08;;;;;;;1.73;0.25;;;20.00;93.10;;;;;;5062483;28;20027;-60
2024/04/05 10:24:38;;;;;;;2.22;0.35;;;20.00;92.60;;;;;;5061541;28;20053;-60
2024/04/05 10:27:11;;;;;;;6.05;0.40;;;20.00;92.40;;;;;;5055504;28;20574;-60
2024/04/05 10:29:37;;;;;;;10.05;0.77;;;19.90;92.30;;;;;;5051273;28;20035;-61
2024/04/05 10:32:09;;;;;;;5.22;0.30;;;19.90;92.20;;;;;;5064411;28;20093;-60
2024/04/05 10:34:35;;;;;;;3.42;0.30;;;19.90;92.10;;;;;;5070378;28;20059;-60
2024/04/05 10:37:04;;;;;;;2.00;0.30;;;19.90;91.60;;;;;;5082475;28;20452;-61
2024/04/05 10:39:30;;;;;;;1.20;0.20;;;19.90;91.20;;;;;;5092606;28;20039;-60
2024/04/05 10:41:55;;;;;;;1.60;0.20;;;19.80;90.90;;;;;;5054481;28;20037;-61
2024/04/05 10:44:29;;;;;;;2.33;0.28;;;19.70;91.10;;;;;;5058017;28;20037;-61
2024/04/05 10:46:54;;;;;;;3.20;0.30;;;19.70;91.80;;;;;;5083331;28;20212;-60
2024/04/05 10:49:20;;;;;;;2.72;0.10;;;19.80;91.40;;;;;;5069834;28;20578;-61
2024/04/05 10:51:47;;;;;;;1.85;0.22;;;19.90;91.60;;;;;;5048187;28;20371;-62
2024/04/05 10:54:14;;;;;;;3.10;0.20;;;20.00;91.20;;;;;;5084366;28;20084;-61
2024/04/05 10:56:42;;;;;;;3.42;0.20;;;20.00;91.80;;;;;;5053583;28;20030;-60
2024/04/05 10:59:09;;;;;;;9.98;0.80;;;20.20;91.30;;;;;;5039926;28;20069;-61
2024/04/05 11:01:41;;;;;;;1.08;0.10;;;20.30;91.00;;;;;;5072297;28;20031;-60
2024/04/05 11:04:10;;;;;;;0.50;0.10;;;20.40;90.80;;;;;;5051301;28;20033;-60
2024/04/05 11:06:37;;;;;;;1.67;0.20;;;20.40;90.70;;;;;;5099202;28;20111;-61
2024/04/05 11:09:06;;;;;;;2.88;0.20;;;20.50;90.60;;;;;;5100053;28;20043;-61
2024/04/05 11:11:32;;;;;;;2.25;0.10;;;20.50;90.30;;;;;;5094581;27;20378;-60
2024/04/05 11:14:02;;;;;;;1.80;0.22;;;20.70;90.60;;;;;;5085001;28;20040;-60
2024/04/05 11:16:29;;;;;;;2.97;0.20;;;21.00;90.30;;;;;;5077852;28;20027;-61
2024/04/05 11:18:54;;;;;;;1.45;0.30;;;21.30;89.80;;;;;;5085558;28;20478;-60
2024/04/05 11:21:20;;;;;;;1.85;0.30;;;21.50;88.70;;;;;;5078462;28;20036;-61
2024/04/05 11:23:51;;;;;;;1.92;0.30;;;21.50;86.50;;;;;;5091118;28;20104;-60
2024/04/05 11:26:21;;;;;;;1.42;0.30;;;21.60;88.80;;;;;;5084575;28;20048;-61
2024/04/05 11:28:47;;;;;;;9.98;0.60;;;21.60;89.00;;;;;;5064770;28;20102;-61
2024/04/05 11:31:16;;;;;;;1.17;0.15;;;21.60;86.90;;;;;;5091766;28;20063;-61
2024/04/05 11:33:41;;;;;;;3.97;0.40;;;21.50;86.70;;;;;;5095826;28;20531;-61
2024/04/05 11:36:09;;;;;;;7.15;0.50;;;21.40;86.70;;;;;;5077482;28;20169;-61
2024/04/05 11:38:36;;;;;;;0.82;0.20;;;21.20;86.10;;;;;;5083098;28;20490;-61
2024/04/05 11:41:03;;;;;;;1.77;0.30;;;21.10;87.80;;;;;;5059310;28;20052;-61
2024/04/05 11:43:29;;;;;;;2.17;0.20;;;21.00;87.60;;;;;;5042791;28;20057;-60
2024/04/05 11:46:01;;;;;;;1.95;0.22;;;21.00;86.90;;;;;;5001181;28;20066;-61
2024/04/05 11:48:26;;;;;;;3.00;0.20;;;21.10;87.20;;;;;;5054400;28;20045;-61
2024/04/05 11:50:52;;;;;;;1.73;0.20;;;21.30;87.60;;;;;;5057590;28;20032;-62
2024/04/05 11:53:18;;;;;;;1.70;0.20;;;21.50;87.10;;;;;;5068041;28;20047;-61
2024/04/05 11:55:44;;;;;;;2.13;0.20;;;21.80;85.40;;;;;;5037211;28;20025;-62
2024/04/05 11:58:16;;;;;;;1.15;0.30;;;22.10;85.10;;;;;;5039492;28;20076;-60
2024/04/05 12:00:48;;;;;;;3.03;0.30;;;22.30;83.50;;;;;;5061197;28;20513;-60
2024/04/05 12:03:17;;;;;;;2.05;0.10;;;22.50;82.70;;;;;;5072378;28;20040;-60
2024/04/05 12:05:44;;;;;;;2.13;0.20;;;22.60;81.80;;;;;;5092096;28;20054;-61
2024/04/05 12:08:12;;;;;;;;;;;22.70;81.70;;;;;;5088782;28;20403;-62
2024/04/05 12:10:40;;;;;;;1.35;0.20;;;22.90;80.90;;;;;;5084978;28;19915;-61
2024/04/05 12:13:05;;;;;;;2.05;0.30;;;23.00;80.60;;;;;;5081521;28;20027;-61
2024/04/05 12:15:32;;;;;;;5.03;0.30;;;23.20;81.40;;;;;;5036978;28;20037;-61
2024/04/05 12:17:59;;;;;;;12.05;1.20;;;23.20;81.50;;;;;;5040169;28;20048;-60
2024/04/05 12:20:32;;;;;;;1.40;0.20;;;23.20;80.00;;;;;;5084724;28;20027;-60
2024/04/05 12:22:58;;;;;;;3.95;0.40;;;23.00;79.30;;;;;;5066580;28;20048;-61
2024/04/05 12:25:24;;;;;;;1.25;0.30;;;22.80;80.30;;;;;;5061511;28;20400;-61
2024/04/05 12:27:55;;;;;;;1.77;0.20;;;22.50;76.50;;;;;;5050098;28;20029;-62
2024/04/05 12:30:21;;;;;;;1.65;0.10;;;22.10;76.70;;;;;;5037636;28;20487;-61
2024/04/05 12:32:46;;;;;;;1.77;0.22;;;21.90;75.60;;;;;;5059800;28;20035;-61
2024/04/05 12:35:12;;;;;;;1.10;0.20;;;21.70;75.40;;;;;;5065978;28;20435;-61
2024/04/05 12:37:38;;;;;;;2.15;0.25;;;21.60;75.60;;;;;;5021064;28;20384;-62
2024/04/05 12:40:15;;;;;;;4.32;0.38;;;21.50;76.30;;;;;;5028042;28;20510;-61
2024/04/05 12:42:40;;;;;;;0.93;0.13;;;21.20;76.10;;;;;;5056124;28;20081;-61
2024/04/05 12:45:08;;;;;;;0.90;0.20;;;21.10;77.10;;;;;;5042274;28;20029;-62
2024/04/05 12:47:40;;;;;;;;;;;20.80;76.90;;;;;;5030576;28;20504;-60